Time;durP1;ratioP1;P1;durP2;ratioP2;P2;SDS_P1;SDS_P2;PMS_P1;PMS_P2;Temp;Humidity;BMP_temperature;BMP_pressure;BME280_temperature;BME280_humidity;BME280_pressure;Samples;Min_cycle;Max_cycle;Signal;HPM_P1;HPM_P2
2023/10/06 00:00:40;;;;;;;9.05;3.38;;;;;;;;;;7373575;19;20014;-70
2023/10/06 00:03:06;;;;;;;7.18;3.50;;;;;;;;;;7371298;19;20050;-70
2023/10/06 00:05:33;;;;;;;7.90;3.60;;;;;;;;;;7371836;19;20368;-70
2023/10/06 00:07:58;;;;;;;7.57;3.90;;;;;;;;;;7369534;19;20027;-70
2023/10/06 00:10:27;;;;;;;8.32;4.18;;;;;;;;;;7371911;19;20006;-69
2023/10/06 00:12:58;;;;;;;8.23;4.00;;;;;;;;;;7390884;19;20023;-69
2023/10/06 00:15:28;;;;;;;6.88;3.92;;;;;;;;;;7371228;19;20012;-70
2023/10/06 00:18:00;;;;;;;6.20;3.60;;;;;;;;;;7371329;19;20010;-69
2023/10/06 00:20:48;;;;;;;7.82;3.90;;;;;;;;;;7371687;19;20019;-70
2023/10/06 00:23:14;;;;;;;7.75;4.07;;;;;;;;;;7369566;19;20044;-70
2023/10/06 00:25:42;;;;;;;6.93;3.80;;;;;;;;;;7370183;19;20011;-70
2023/10/06 00:28:16;;;;;;;10.15;4.25;;;;;;;;;;7390516;19;20022;-70
2023/10/06 00:30:42;;;;;;;9.27;3.90;;;;;;;;;;7368242;19;20498;-69
2023/10/06 00:33:07;;;;;;;8.75;3.28;;;;;;;;;;7365439;19;20110;-69
2023/10/06 00:35:33;;;;;;;8.15;3.90;;;;;;;;;;7363487;19;20010;-71
2023/10/06 00:38:10;;;;;;;7.20;3.50;;;;;;;;;;7369456;19;20014;-70
2023/10/06 00:40:36;;;;;;;8.98;3.40;;;;;;;;;;7367176;19;20003;-70
2023/10/06 00:43:04;;;;;;;6.85;3.78;;;;;;;;;;7392104;19;19994;-71
2023/10/06 00:45:30;;;;;;;8.77;4.50;;;;;;;;;;7374036;19;20002;-70
2023/10/06 00:47:56;;;;;;;9.43;3.90;;;;;;;;;;7374686;19;20507;-70
2023/10/06 00:50:24;;;;;;;6.85;3.72;;;;;;;;;;7372330;19;20015;-70
2023/10/06 00:52:55;;;;;;;18.27;4.40;;;;;;;;;;7369425;19;20010;-70
2023/10/06 00:55:21;;;;;;;11.75;4.47;;;;;;;;;;7370812;19;20070;-70
2023/10/06 00:57:52;;;;;;;7.85;3.70;;;;;;;;;;7391369;19;20033;-70
2023/10/06 01:00:20;;;;;;;8.40;4.20;;;;;;;;;;7369937;19;20411;-70
2023/10/06 01:02:47;;;;;;;12.27;3.92;;;;;;;;;;7366705;19;20010;-70
2023/10/06 01:05:15;;;;;;;7.95;3.60;;;;;;;;;;7369708;19;20018;-70
2023/10/06 01:07:41;;;;;;;7.88;4.22;;;;;;;;;;7370325;19;20338;-70
2023/10/06 01:10:15;;;;;;;10.98;4.20;;;;;;;;;;7392621;19;20010;-70
2023/10/06 01:12:40;;;;;;;10.05;4.57;;;;;;;;;;7367463;19;20114;-70
2023/10/06 01:15:17;;;;;;;10.52;4.45;;;;;;;;;;7369697;19;20446;-70
2023/10/06 01:17:43;;;;;;;9.85;4.38;;;;;;;;;;7370408;19;20322;-70
2023/10/06 01:20:10;;;;;;;10.88;4.50;;;;;;;;;;7367426;19;20030;-70
2023/10/06 01:22:42;;;;;;;7.35;3.90;;;;;;;;;;7368490;19;20017;-70
2023/10/06 01:25:20;;;;;;;10.23;4.47;;;;;;;;;;7392086;19;20435;-70
2023/10/06 01:27:46;;;;;;;7.60;4.38;;;;;;;;;;7369818;19;20010;-70
2023/10/06 01:32:41;;;;;;;10.82;4.80;;;;;;;;;;7367745;19;20054;-70
2023/10/06 01:35:12;;;;;;;10.68;4.43;;;;;;;;;;7368313;19;20007;-68
2023/10/06 01:37:39;;;;;;;8.73;4.27;;;;;;;;;;7369330;19;20437;-69
2023/10/06 01:40:14;;;;;;;7.80;4.38;;;;;;;;;;7389440;19;20010;-70
2023/10/06 01:42:40;;;;;;;9.00;4.68;;;;;;;;;;7366668;19;20010;-69
2023/10/06 01:45:14;;;;;;;6.68;4.05;;;;;;;;;;7369403;19;20035;-69
2023/10/06 01:47:39;;;;;;;13.07;4.50;;;;;;;;;;7369552;19;20003;-68
2023/10/06 01:50:05;;;;;;;9.23;3.70;;;;;;;;;;7368127;19;20030;-70
2023/10/06 01:52:30;;;;;;;7.85;3.20;;;;;;;;;;7367094;19;20003;-69
2023/10/06 01:55:09;;;;;;;7.28;3.50;;;;;;;;;;7389829;19;20007;-69
2023/10/06 01:57:34;;;;;;;9.60;3.55;;;;;;;;;;7368287;19;20006;-69
2023/10/06 01:59:59;;;;;;;9.55;3.65;;;;;;;;;;7367941;19;20025;-69
2023/10/06 02:02:25;;;;;;;6.82;3.50;;;;;;;;;;7366897;19;20029;-69
2023/10/06 02:04:52;;;;;;;9.85;4.32;;;;;;;;;;7368484;19;20529;-69
2023/10/06 02:07:18;;;;;;;9.13;4.28;;;;;;;;;;7368647;19;20014;-69
2023/10/06 02:09:44;;;;;;;10.07;4.30;;;;;;;;;;7390043;19;20041;-69
2023/10/06 02:12:09;;;;;;;8.85;3.83;;;;;;;;;;7366392;19;20370;-69
2023/10/06 02:14:35;;;;;;;12.00;4.30;;;;;;;;;;7367399;19;20023;-69
2023/10/06 02:17:10;;;;;;;8.20;3.95;;;;;;;;;;7369595;19;20082;-69
2023/10/06 02:19:37;;;;;;;9.40;4.32;;;;;;;;;;7367325;19;20013;-69
2023/10/06 02:22:06;;;;;;;9.70;4.30;;;;;;;;;;7389887;19;20001;-69
2023/10/06 02:24:31;;;;;;;6.45;3.70;;;;;;;;;;7366460;19;20525;-69
2023/10/06 02:27:01;;;;;;;9.15;4.18;;;;;;;;;;7363551;19;20006;-69
2023/10/06 02:29:26;;;;;;;7.25;3.90;;;;;;;;;;7363983;19;20317;-69
2023/10/06 02:32:01;;;;;;;8.73;4.00;;;;;;;;;;7362087;19;20006;-69
2023/10/06 02:34:29;;;;;;;7.78;3.92;;;;;;;;;;7363692;19;20386;-70
2023/10/06 02:36:56;;;;;;;10.57;4.00;;;;;;;;;;7386867;19;20395;-69
2023/10/06 02:39:21;;;;;;;9.25;4.63;;;;;;;;;;7362846;19;20077;-69
2023/10/06 02:41:47;;;;;;;8.38;4.45;;;;;;;;;;7363842;19;20106;-69
2023/10/06 02:44:22;;;;;;;10.40;4.50;;;;;;;;;;7366452;19;19998;-69
2023/10/06 02:46:50;;;;;;;10.20;4.38;;;;;;;;;;7367532;19;20003;-69
2023/10/06 02:49:24;;;;;;;7.47;4.18;;;;;;;;;;7367639;19;20378;-69
2023/10/06 02:51:50;;;;;;;9.95;4.20;;;;;;;;;;7388416;19;20006;-69
2023/10/06 02:56:43;;;;;;;9.27;4.38;;;;;;;;;;7366065;19;20010;-69
2023/10/06 02:59:20;;;;;;;15.05;4.90;;;;;;;;;;7366602;19;20066;-69
2023/10/06 03:01:57;;;;;;;9.45;4.88;;;;;;;;;;7366847;19;20070;-69
2023/10/06 03:04:27;;;;;;;10.65;5.32;;;;;;;;;;7365875;19;20023;-69
2023/10/06 03:06:58;;;;;;;10.60;5.35;;;;;;;;;;7389469;19;20101;-69
2023/10/06 03:09:29;;;;;;;12.18;5.88;;;;;;;;;;7366448;19;20489;-69
2023/10/06 03:11:58;;;;;;;10.73;5.00;;;;;;;;;;7365194;19;20693;-69
2023/10/06 03:14:24;;;;;;;10.38;5.05;;;;;;;;;;7366152;19;20006;-69
2023/10/06 03:16:51;;;;;;;11.57;5.43;;;;;;;;;;7367280;19;20052;-69
2023/10/06 03:19:19;;;;;;;13.68;5.43;;;;;;;;;;7365431;19;20006;-69
2023/10/06 03:21:46;;;;;;;12.52;5.07;;;;;;;;;;7388280;19;20105;-69
2023/10/06 03:24:25;;;;;;;9.73;4.43;;;;;;;;;;7365922;19;20006;-69
2023/10/06 03:26:51;;;;;;;8.85;4.85;;;;;;;;;;7366255;19;20011;-69
2023/10/06 03:29:28;;;;;;;8.43;5.00;;;;;;;;;;7366304;19;20044;-69
2023/10/06 03:31:56;;;;;;;9.25;5.22;;;;;;;;;;7365328;19;20025;-69
2023/10/06 03:34:23;;;;;;;12.60;5.45;;;;;;;;;;7365099;19;20017;-69
2023/10/06 03:36:51;;;;;;;11.95;5.85;;;;;;;;;;7387630;19;20026;-69
2023/10/06 03:39:23;;;;;;;13.57;5.50;;;;;;;;;;7363860;19;20525;-69
2023/10/06 03:41:53;;;;;;;10.00;5.30;;;;;;;;;;7367186;19;20017;-69
2023/10/06 03:44:26;;;;;;;9.47;5.50;;;;;;;;;;7372369;19;20476;-69
2023/10/06 03:47:05;;;;;;;13.70;5.82;;;;;;;;;;7372846;19;20235;-68
2023/10/06 03:49:33;;;;;;;11.70;5.60;;;;;;;;;;7372145;19;20021;-69
2023/10/06 03:51:58;;;;;;;11.20;5.00;;;;;;;;;;7393536;19;20007;-71
2023/10/06 03:54:24;;;;;;;9.55;4.43;;;;;;;;;;7370214;19;20015;-69
2023/10/06 03:56:49;;;;;;;9.48;5.22;;;;;;;;;;7371874;19;20100;-69
2023/10/06 03:59:16;;;;;;;7.88;4.40;;;;;;;;;;7368298;19;20009;-69
2023/10/06 04:01:44;;;;;;;9.23;4.85;;;;;;;;;;7369243;19;20014;-69
2023/10/06 04:04:12;;;;;;;11.82;4.82;;;;;;;;;;7384800;19;20090;-69
2023/10/06 04:06:39;;;;;;;16.52;5.47;;;;;;;;;;7394139;19;20014;-69
2023/10/06 04:09:05;;;;;;;8.40;5.22;;;;;;;;;;7372906;19;20405;-69
2023/10/06 04:11:31;;;;;;;11.55;5.43;;;;;;;;;;7371946;19;20032;-69
2023/10/06 04:13:57;;;;;;;7.65;4.18;;;;;;;;;;7370600;19;20010;-69
2023/10/06 04:16:23;;;;;;;10.13;4.85;;;;;;;;;;7370656;19;20043;-69
2023/10/06 04:18:48;;;;;;;8.82;4.70;;;;;;;;;;7391574;19;20006;-69
2023/10/06 04:21:14;;;;;;;14.15;5.68;;;;;;;;;;7370775;19;20009;-69
2023/10/06 04:23:41;;;;;;;9.40;5.22;;;;;;;;;;7369982;19;20034;-69
2023/10/06 04:26:07;;;;;;;12.88;5.40;;;;;;;;;;7371229;19;20472;-69
2023/10/06 04:28:36;;;;;;;9.73;5.07;;;;;;;;;;7370839;19;20867;-69
2023/10/06 04:31:02;;;;;;;10.65;5.15;;;;;;;;;;7390399;19;20010;-69
2023/10/06 04:33:30;;;;;;;9.73;5.90;;;;;;;;;;7367910;19;20003;-69
2023/10/06 04:35:56;;;;;;;11.68;6.32;;;;;;;;;;7370061;19;20013;-69
2023/10/06 04:38:27;;;;;;;11.68;6.57;;;;;;;;;;7370068;19;20007;-69
2023/10/06 04:40:52;;;;;;;16.45;7.93;;;;;;;;;;7368824;19;20066;-70
2023/10/06 04:43:18;;;;;;;16.60;7.28;;;;;;;;;;7367602;19;20461;-69
2023/10/06 04:45:50;;;;;;;15.85;8.38;;;;;;;;;;7391311;19;20439;-69
2023/10/06 04:48:18;;;;;;;15.27;7.35;;;;;;;;;;7368359;19;20412;-69
2023/10/06 04:50:44;;;;;;;13.13;7.50;;;;;;;;;;7368660;19;20010;-69
2023/10/06 04:53:11;;;;;;;11.70;7.03;;;;;;;;;;7368096;19;20724;-69
2023/10/06 04:55:39;;;;;;;11.73;7.35;;;;;;;;;;7370218;19;20010;-69
2023/10/06 04:58:08;;;;;;;11.65;6.07;;;;;;;;;;7392115;19;20023;-70
2023/10/06 05:00:33;;;;;;;12.55;6.15;;;;;;;;;;7371037;19;20034;-70
2023/10/06 05:03:03;;;;;;;10.70;6.28;;;;;;;;;;7351957;19;20551;-70
2023/10/06 05:05:33;;;;;;;10.40;5.93;;;;;;;;;;7365319;19;20010;-69
2023/10/06 05:07:59;;;;;;;10.38;5.63;;;;;;;;;;7369328;19;20018;-70
2023/10/06 05:10:30;;;;;;;9.95;6.28;;;;;;;;;;7369612;19;20011;-69
2023/10/06 05:12:55;;;;;;;11.27;5.60;;;;;;;;;;7386068;19;20455;-69
2023/10/06 05:15:23;;;;;;;9.88;5.50;;;;;;;;;;7369291;19;20011;-69
2023/10/06 05:17:55;;;;;;;10.07;5.68;;;;;;;;;;7369721;19;20023;-69
2023/10/06 05:20:21;;;;;;;;;;;;;;;;;;7369054;19;20489;-70
2023/10/06 05:22:48;;;;;;;11.70;5.78;;;;;;;;;;7367845;19;19922;-70
2023/10/06 05:25:14;;;;;;;8.95;4.85;;;;;;;;;;7368339;19;20113;-70
2023/10/06 05:27:42;;;;;;;10.20;4.80;;;;;;;;;;7389001;19;20106;-70
2023/10/06 05:30:08;;;;;;;10.52;5.40;;;;;;;;;;7369281;19;20007;-69
2023/10/06 05:32:35;;;;;;;8.85;5.35;;;;;;;;;;7367424;19;20135;-69
2023/10/06 05:35:00;;;;;;;10.57;5.75;;;;;;;;;;7369629;19;20014;-69
2023/10/06 05:37:25;;;;;;;11.15;5.18;;;;;;;;;;7371264;19;20030;-68
2023/10/06 05:39:51;;;;;;;7.22;4.82;;;;;;;;;;7392473;19;20002;-69
2023/10/06 05:42:17;;;;;;;10.80;5.38;;;;;;;;;;7370872;19;20011;-68
2023/10/06 05:44:42;;;;;;;11.82;5.38;;;;;;;;;;7372461;19;20369;-69
2023/10/06 05:47:08;;;;;;;13.02;5.47;;;;;;;;;;7372910;19;20006;-69
2023/10/06 05:49:35;;;;;;;11.88;4.97;;;;;;;;;;7370855;19;20006;-66
2023/10/06 05:52:03;;;;;;;9.57;6.00;;;;;;;;;;7390016;19;20009;-65
2023/10/06 05:54:29;;;;;;;10.02;5.70;;;;;;;;;;7367013;19;20007;-66
2023/10/06 05:56:55;;;;;;;14.35;5.90;;;;;;;;;;7367458;19;20037;-66
2023/10/06 05:59:21;;;;;;;11.05;6.03;;;;;;;;;;7368169;19;20014;-67
2023/10/06 06:01:56;;;;;;;8.07;4.95;;;;;;;;;;7367965;19;20129;-66
2023/10/06 06:04:27;;;;;;;12.48;5.40;;;;;;;;;;7365784;19;20027;-69
2023/10/06 06:06:56;;;;;;;10.73;5.72;;;;;;;;;;7388556;19;20049;-69
2023/10/06 06:09:23;;;;;;;8.57;4.93;;;;;;;;;;7367773;19;20006;-70
2023/10/06 06:11:48;;;;;;;10.43;5.68;;;;;;;;;;7365790;19;20003;-70
2023/10/06 06:14:13;;;;;;;9.45;5.13;;;;;;;;;;7365794;19;20541;-69
2023/10/06 06:16:44;;;;;;;12.88;6.53;;;;;;;;;;7367254;19;20445;-69
2023/10/06 06:19:11;;;;;;;12.85;7.15;;;;;;;;;;7386966;19;20113;-70
2023/10/06 06:21:38;;;;;;;16.75;7.65;;;;;;;;;;7388542;19;20016;-70
2023/10/06 06:24:06;;;;;;;12.85;7.55;;;;;;;;;;7366801;19;20808;-69
2023/10/06 06:26:32;;;;;;;13.48;7.45;;;;;;;;;;7372466;19;20337;-69
2023/10/06 06:29:02;;;;;;;12.00;7.80;;;;;;;;;;7367836;19;20039;-70
2023/10/06 06:31:28;;;;;;;21.38;7.90;;;;;;;;;;7367465;19;20003;-69
2023/10/06 06:33:56;;;;;;;20.83;6.90;;;;;;;;;;7386514;19;20039;-70
2023/10/06 06:36:22;;;;;;;17.98;7.00;;;;;;;;;;7367155;19;20024;-70
2023/10/06 06:38:48;;;;;;;11.90;7.15;;;;;;;;;;7367326;19;20593;-70
2023/10/06 06:41:14;;;;;;;15.75;7.78;;;;;;;;;;7366230;19;20094;-69
2023/10/06 06:43:44;;;;;;;14.35;8.05;;;;;;;;;;7364328;19;20092;-69
2023/10/06 06:46:10;;;;;;;19.55;8.25;;;;;;;;;;7381460;19;20088;-69
2023/10/06 06:48:35;;;;;;;18.40;8.50;;;;;;;;;;7381606;19;20019;-70
2023/10/06 06:51:01;;;;;;;17.92;10.05;;;;;;;;;;7366622;19;20002;-70
2023/10/06 06:53:26;;;;;;;14.57;8.50;;;;;;;;;;7364322;19;20448;-68
2023/10/06 06:55:51;;;;;;;13.10;7.97;;;;;;;;;;7365739;19;20023;-70
2023/10/06 06:58:16;;;;;;;11.32;7.78;;;;;;;;;;7366372;19;20117;-70
2023/10/06 07:00:42;;;;;;;11.75;7.10;;;;;;;;;;7389435;19;20022;-71
2023/10/06 07:03:08;;;;;;;10.10;6.55;;;;;;;;;;7363979;19;20043;-68
2023/10/06 07:05:36;;;;;;;13.13;7.15;;;;;;;;;;7365063;19;20030;-69
2023/10/06 07:08:05;;;;;;;11.88;6.95;;;;;;;;;;7366177;19;20002;-69
2023/10/06 07:10:30;;;;;;;10.32;6.30;;;;;;;;;;7366746;19;20020;-69
2023/10/06 07:12:58;;;;;;;22.30;6.88;;;;;;;;;;7385242;19;20014;-70
2023/10/06 07:15:27;;;;;;;34.28;8.73;;;;;;;;;;7364494;19;20397;-70
2023/10/06 07:17:56;;;;;;;25.30;9.20;;;;;;;;;;7370993;19;20667;-71
2023/10/06 07:20:27;;;;;;;20.67;8.63;;;;;;;;;;7370852;19;20006;-70
2023/10/06 07:22:55;;;;;;;25.92;8.82;;;;;;;;;;7371233;19;20013;-70
2023/10/06 07:25:24;;;;;;;22.23;8.82;;;;;;;;;;7372018;19;20027;-68
2023/10/06 07:27:52;;;;;;;54.38;12.25;;;;;;;;;;7395168;19;20035;-68
2023/10/06 07:30:22;;;;;;;41.47;10.05;;;;;;;;;;7366482;19;20413;-69
2023/10/06 07:32:48;;;;;;;29.98;10.93;;;;;;;;;;7367074;19;20007;-69
2023/10/06 07:35:15;;;;;;;28.77;11.40;;;;;;;;;;7371410;19;20079;-69
2023/10/06 07:37:49;;;;;;;27.67;9.82;;;;;;;;;;7371931;19;20014;-69
2023/10/06 07:40:18;;;;;;;26.95;9.18;;;;;;;;;;7369387;19;20006;-70
2023/10/06 07:42:49;;;;;;;26.02;9.13;;;;;;;;;;7390232;19;20002;-71
2023/10/06 07:45:15;;;;;;;25.80;9.43;;;;;;;;;;7372395;19;20002;-69
2023/10/06 07:47:42;;;;;;;23.05;9.98;;;;;;;;;;7372122;19;20017;-70
2023/10/06 07:50:14;;;;;;;18.63;9.57;;;;;;;;;;7370629;19;20006;-70
2023/10/06 07:52:46;;;;;;;17.60;9.18;;;;;;;;;;7369406;19;20523;-70
2023/10/06 07:55:12;;;;;;;22.27;8.85;;;;;;;;;;7372152;19;20448;-69
2023/10/06 07:57:48;;;;;;;17.27;8.48;;;;;;;;;;7393007;19;20034;-69
2023/10/06 08:00:30;;;;;;;21.52;9.63;;;;;;;;;;7371264;19;20049;-69
2023/10/06 08:03:00;;;;;;;26.02;9.38;;;;;;;;;;7366592;19;20003;-69
2023/10/06 08:05:26;;;;;;;19.65;9.95;;;;;;;;;;7372048;19;20010;-70
2023/10/06 08:07:52;;;;;;;20.50;10.30;;;;;;;;;;7370804;19;20014;-70
2023/10/06 08:10:18;;;;;;;20.13;10.60;;;;;;;;;;7371372;19;20026;-70
2023/10/06 08:12:50;;;;;;;25.33;10.35;;;;;;;;;;7389586;19;20027;-69
2023/10/06 08:15:18;;;;;;;28.08;10.68;;;;;;;;;;7371414;19;20003;-69
2023/10/06 08:17:48;;;;;;;22.05;8.32;;;;;;;;;;7371133;19;20570;-69
2023/10/06 08:20:15;;;;;;;17.15;7.75;;;;;;;;;;7370489;19;20512;-70
2023/10/06 08:22:41;;;;;;;15.10;7.57;;;;;;;;;;7368602;19;20009;-69
2023/10/06 08:25:06;;;;;;;17.70;7.13;;;;;;;;;;7393638;19;19990;-71
2023/10/06 08:27:39;;;;;;;13.73;6.53;;;;;;;;;;7369657;19;20696;-71
2023/10/06 08:30:09;;;;;;;13.85;6.35;;;;;;;;;;7369205;19;20015;-69
2023/10/06 08:32:34;;;;;;;11.57;5.65;;;;;;;;;;7368211;19;20077;-70
2023/10/06 08:35:00;;;;;;;16.70;7.15;;;;;;;;;;7371253;19;20006;-71
2023/10/06 08:37:26;;;;;;;17.58;7.40;;;;;;;;;;7370221;19;20006;-70
2023/10/06 08:39:51;;;;;;;18.50;7.22;;;;;;;;;;7388503;19;20078;-69
2023/10/06 08:42:19;;;;;;;17.88;6.85;;;;;;;;;;7368214;19;20010;-69
2023/10/06 08:44:45;;;;;;;15.77;6.80;;;;;;;;;;7369231;19;20009;-70
2023/10/06 08:47:13;;;;;;;16.17;6.43;;;;;;;;;;7371167;19;19999;-71
2023/10/06 08:49:43;;;;;;;16.38;7.60;;;;;;;;;;7367985;19;20010;-70
2023/10/06 08:52:12;;;;;;;13.30;6.90;;;;;;;;;;7389337;19;20454;-69
2023/10/06 08:54:37;;;;;;;12.68;6.93;;;;;;;;;;7368299;19;20386;-69
2023/10/06 08:57:03;;;;;;;18.48;7.95;;;;;;;;;;7368791;19;20006;-70
2023/10/06 08:59:31;;;;;;;15.75;7.40;;;;;;;;;;7366325;19;20014;-68
2023/10/06 09:01:59;;;;;;;13.48;7.35;;;;;;;;;;7370022;19;20047;-70
2023/10/06 09:04:32;;;;;;;13.70;6.35;;;;;;;;;;7369972;19;20093;-70
2023/10/06 09:07:18;;;;;;;15.45;6.65;;;;;;;;;;7391768;19;20014;-70
2023/10/06 09:09:43;;;;;;;14.00;6.55;;;;;;;;;;7369264;19;20366;-70
2023/10/06 09:12:21;;;;;;;13.32;6.13;;;;;;;;;;7365473;19;20062;-70
2023/10/06 09:14:54;;;;;;;8.40;5.38;;;;;;;;;;7368064;19;20012;-71
2023/10/06 09:17:33;;;;;;;10.85;6.10;;;;;;;;;;7369789;19;20023;-69
2023/10/06 09:19:59;;;;;;;10.13;5.82;;;;;;;;;;7367628;19;20013;-69
2023/10/06 09:22:29;;;;;;;15.05;7.38;;;;;;;;;;7366401;19;20031;-69
2023/10/06 09:25:04;;;;;;;8.95;5.82;;;;;;;;;;7390185;19;20002;-69
2023/10/06 09:27:37;;;;;;;11.05;5.70;;;;;;;;;;7368449;19;20027;-69
2023/10/06 09:30:07;;;;;;;12.35;6.00;;;;;;;;;;7367830;19;20735;-69
2023/10/06 09:32:34;;;;;;;15.43;6.32;;;;;;;;;;7366869;19;20014;-69
2023/10/06 09:35:16;;;;;;;12.80;6.38;;;;;;;;;;7367839;19;20040;-69
2023/10/06 09:37:42;;;;;;;10.10;5.72;;;;;;;;;;7369340;19;20046;-69
2023/10/06 09:40:20;;;;;;;9.98;5.65;;;;;;;;;;7388119;19;20374;-69
2023/10/06 09:42:50;;;;;;;12.65;6.03;;;;;;;;;;7365962;19;20009;-69
2023/10/06 09:45:20;;;;;;;11.98;5.97;;;;;;;;;;7368349;19;20007;-68
2023/10/06 09:47:50;;;;;;;9.82;5.57;;;;;;;;;;7367461;19;20006;-69
2023/10/06 09:50:19;;;;;;;14.05;6.00;;;;;;;;;;7368005;19;20013;-68
2023/10/06 09:52:47;;;;;;;9.05;5.68;;;;;;;;;;7364689;19;20424;-69
2023/10/06 09:55:15;;;;;;;11.68;5.70;;;;;;;;;;7368843;19;20002;-69
2023/10/06 09:57:42;;;;;;;10.48;5.47;;;;;;;;;;7390414;19;20003;-70
2023/10/06 10:00:15;;;;;;;8.85;4.90;;;;;;;;;;7368680;19;20002;-69
2023/10/06 10:02:44;;;;;;;9.02;4.25;;;;;;;;;;7366645;19;20006;-71
2023/10/06 10:05:11;;;;;;;10.18;5.40;;;;;;;;;;7367938;19;19999;-70
2023/10/06 10:07:40;;;;;;;9.65;5.47;;;;;;;;;;7365795;19;20011;-69
2023/10/06 10:10:10;;;;;;;8.52;4.93;;;;;;;;;;7389346;19;20003;-69
2023/10/06 10:12:39;;;;;;;8.13;4.82;;;;;;;;;;7363423;19;20094;-70
2023/10/06 10:15:25;;;;;;;9.88;4.45;;;;;;;;;;7367150;19;20030;-68
2023/10/06 10:18:06;;;;;;;8.57;5.10;;;;;;;;;;7368338;19;20115;-71
2023/10/06 10:20:32;;;;;;;9.82;5.13;;;;;;;;;;7367636;19;20006;-71
2023/10/06 10:23:01;;;;;;;10.15;5.05;;;;;;;;;;7366022;19;20006;-70
2023/10/06 10:25:34;;;;;;;8.30;4.50;;;;;;;;;;7367739;19;20325;-69
2023/10/06 10:28:27;;;;;;;7.18;4.25;;;;;;;;;;7389016;19;20002;-70
2023/10/06 10:30:59;;;;;;;12.13;4.30;;;;;;;;;;7366549;19;20003;-70
2023/10/06 10:33:30;;;;;;;9.15;4.60;;;;;;;;;;7363372;19;20023;-70
2023/10/06 10:36:14;;;;;;;7.22;4.47;;;;;;;;;;7366284;19;20108;-69
2023/10/06 10:38:43;;;;;;;9.13;4.03;;;;;;;;;;7366965;19;20006;-68
2023/10/06 10:41:10;;;;;;;8.95;4.63;;;;;;;;;;7364771;19;20334;-69
2023/10/06 10:43:37;;;;;;;9.45;4.25;;;;;;;;;;7363397;19;20490;-69
2023/10/06 10:46:04;;;;;;;11.68;5.20;;;;;;;;;;7386999;19;20325;-69
2023/10/06 10:48:36;;;;;;;12.63;4.70;;;;;;;;;;7364345;19;20042;-69
2023/10/06 10:51:10;;;;;;;12.85;4.20;;;;;;;;;;7365641;19;20432;-68
2023/10/06 10:53:41;;;;;;;8.18;3.60;;;;;;;;;;7369689;19;20603;-68
2023/10/06 10:56:13;;;;;;;6.95;3.75;;;;;;;;;;7373088;19;20010;-69
2023/10/06 10:58:44;;;;;;;8.93;4.30;;;;;;;;;;7373572;19;20591;-69
2023/10/06 11:01:32;;;;;;;8.45;4.20;;;;;;;;;;7370588;19;20018;-68
2023/10/06 11:04:30;;;;;;;7.88;4.03;;;;;;;;;;7393018;19;20115;-68
2023/10/06 11:07:10;;;;;;;7.20;3.67;;;;;;;;;;7372363;19;20026;-68
2023/10/06 11:12:05;;;;;;;7.50;3.50;;;;;;;;;;7367109;19;20007;-68
2023/10/06 11:14:38;;;;;;;9.65;4.45;;;;;;;;;;7361014;19;20010;-69
2023/10/06 11:17:05;;;;;;;7.68;4.15;;;;;;;;;;7374502;19;20650;-69
2023/10/06 11:19:32;;;;;;;13.00;4.50;;;;;;;;;;7371938;19;20003;-69
2023/10/06 11:22:11;;;;;;;10.80;4.40;;;;;;;;;;7393602;19;20587;-69
2023/10/06 11:24:40;;;;;;;10.10;4.13;;;;;;;;;;7372286;19;20011;-68
2023/10/06 11:27:16;;;;;;;8.40;4.18;;;;;;;;;;7371926;19;20011;-67
2023/10/06 11:29:43;;;;;;;12.60;4.40;;;;;;;;;;7373483;19;20010;-68
2023/10/06 11:32:08;;;;;;;9.80;4.32;;;;;;;;;;7371909;19;20006;-69
2023/10/06 11:34:34;;;;;;;12.07;4.88;;;;;;;;;;7371690;19;20086;-68
2023/10/06 11:37:01;;;;;;;9.07;4.10;;;;;;;;;;7394876;19;20091;-67
2023/10/06 11:39:29;;;;;;;10.00;4.68;;;;;;;;;;7370816;19;20479;-68
2023/10/06 11:42:29;;;;;;;11.07;4.80;;;;;;;;;;7371302;19;20034;-68
2023/10/06 11:44:59;;;;;;;;;;;;;;;;;;7372537;19;20011;-68
2023/10/06 11:47:27;;;;;;;9.13;4.85;;;;;;;;;;7372010;19;19918;-68
2023/10/06 11:49:53;;;;;;;10.45;4.75;;;;;;;;;;7371961;19;20369;-68
2023/10/06 11:52:18;;;;;;;12.55;4.68;;;;;;;;;;7371001;19;20007;-68
2023/10/06 11:54:44;;;;;;;8.73;4.20;;;;;;;;;;7393238;19;20016;-67
2023/10/06 11:57:09;;;;;;;10.65;4.35;;;;;;;;;;7371141;19;20009;-68
2023/10/06 11:59:34;;;;;;;9.80;4.25;;;;;;;;;;7370313;19;20010;-67
2023/10/06 12:02:09;;;;;;;10.25;4.55;;;;;;;;;;7371413;19;20016;-68
2023/10/06 12:04:34;;;;;;;10.65;4.43;;;;;;;;;;7371282;19;20476;-68
2023/10/06 12:07:00;;;;;;;7.32;3.72;;;;;;;;;;7393773;19;20018;-69
2023/10/06 12:09:30;;;;;;;10.48;4.28;;;;;;;;;;7372154;19;20658;-68
2023/10/06 12:11:59;;;;;;;7.70;2.95;;;;;;;;;;7369400;19;20002;-68
2023/10/06 12:14:28;;;;;;;6.93;2.70;;;;;;;;;;7371001;19;20017;-68
2023/10/06 12:16:57;;;;;;;7.15;2.67;;;;;;;;;;7367232;19;20770;-68
2023/10/06 12:19:23;;;;;;;9.45;2.88;;;;;;;;;;7370079;19;20030;-68
2023/10/06 12:21:52;;;;;;;6.28;3.03;;;;;;;;;;7392296;19;20006;-68
2023/10/06 12:24:18;;;;;;;7.85;2.70;;;;;;;;;;7369603;19;20495;-68
2023/10/06 12:26:46;;;;;;;9.38;2.92;;;;;;;;;;7370940;19;20030;-68
2023/10/06 12:29:17;;;;;;;6.93;2.97;;;;;;;;;;7370146;19;20079;-68
2023/10/06 12:31:46;;;;;;;7.82;2.90;;;;;;;;;;7370626;19;20090;-67
2023/10/06 12:34:15;;;;;;;8.57;3.10;;;;;;;;;;7371940;19;20006;-68
2023/10/06 12:36:41;;;;;;;7.00;3.05;;;;;;;;;;7392736;19;20014;-68
2023/10/06 12:39:15;;;;;;;9.48;2.80;;;;;;;;;;7370149;19;20006;-67
2023/10/06 12:41:46;;;;;;;9.52;2.92;;;;;;;;;;7370845;19;20011;-68
2023/10/06 12:44:12;;;;;;;7.72;3.28;;;;;;;;;;7368819;19;20017;-68
2023/10/06 12:46:38;;;;;;;7.85;3.90;;;;;;;;;;7366769;19;20520;-68
2023/10/06 12:49:06;;;;;;;6.68;2.95;;;;;;;;;;7390595;19;20014;-69
2023/10/06 12:51:32;;;;;;;7.43;2.75;;;;;;;;;;7368206;19;20003;-68
2023/10/06 12:54:00;;;;;;;9.40;3.00;;;;;;;;;;7366408;19;20097;-70
2023/10/06 12:56:28;;;;;;;8.35;3.05;;;;;;;;;;7368995;19;20611;-69
2023/10/06 12:58:53;;;;;;;6.90;2.80;;;;;;;;;;7367623;19;20021;-69
2023/10/06 13:01:19;;;;;;;7.22;3.00;;;;;;;;;;7369400;19;20531;-71
2023/10/06 13:03:44;;;;;;;7.40;3.00;;;;;;;;;;7388398;19;20326;-68
2023/10/06 13:06:12;;;;;;;6.55;3.10;;;;;;;;;;7369540;19;20014;-69
2023/10/06 13:08:38;;;;;;;9.15;2.80;;;;;;;;;;7370486;19;20010;-70
2023/10/06 13:11:04;;;;;;;7.35;2.90;;;;;;;;;;7368983;19;20007;-69
2023/10/06 13:13:29;;;;;;;5.60;2.53;;;;;;;;;;7366920;19;20492;-67
2023/10/06 13:15:54;;;;;;;9.13;3.00;;;;;;;;;;7389671;19;20027;-71
2023/10/06 13:18:22;;;;;;;8.18;3.05;;;;;;;;;;7368518;19;20003;-69
2023/10/06 13:20:47;;;;;;;7.35;3.20;;;;;;;;;;7369250;19;20007;-68
2023/10/06 13:23:13;;;;;;;8.05;3.25;;;;;;;;;;7368292;19;20049;-68
2023/10/06 13:25:39;;;;;;;6.93;2.75;;;;;;;;;;7369944;19;20010;-68
2023/10/06 13:28:14;;;;;;;10.02;3.00;;;;;;;;;;7391722;19;20011;-69
2023/10/06 13:30:44;;;;;;;9.25;2.95;;;;;;;;;;7370514;19;20023;-69
2023/10/06 13:33:09;;;;;;;7.35;3.17;;;;;;;;;;7364105;19;19994;-68
2023/10/06 13:35:36;;;;;;;9.25;3.10;;;;;;;;;;7370330;19;20009;-67
2023/10/06 13:38:02;;;;;;;6.25;2.80;;;;;;;;;;7370126;19;20074;-68
2023/10/06 13:40:29;;;;;;;8.00;2.75;;;;;;;;;;7367313;19;19998;-68
2023/10/06 13:42:54;;;;;;;9.23;2.80;;;;;;;;;;7389133;19;20007;-69
2023/10/06 13:45:24;;;;;;;6.70;3.00;;;;;;;;;;7369084;19;20002;-68
2023/10/06 13:47:55;;;;;;;6.10;2.80;;;;;;;;;;7369148;19;20394;-67
2023/10/06 13:50:21;;;;;;;9.60;3.33;;;;;;;;;;7371268;19;20399;-70
2023/10/06 13:52:49;;;;;;;8.25;2.95;;;;;;;;;;7367690;19;20007;-70
2023/10/06 13:55:16;;;;;;;8.55;3.17;;;;;;;;;;7367900;19;20083;-70
2023/10/06 13:57:44;;;;;;;6.32;2.75;;;;;;;;;;7390171;19;20007;-68
2023/10/06 14:00:14;;;;;;;9.43;3.00;;;;;;;;;;7366956;19;20010;-68
2023/10/06 14:02:40;;;;;;;12.18;3.20;;;;;;;;;;7367522;19;20006;-70
2023/10/06 14:05:07;;;;;;;8.20;2.50;;;;;;;;;;7368424;19;20007;-70
2023/10/06 14:07:33;;;;;;;7.30;3.13;;;;;;;;;;7367860;19;20031;-70
2023/10/06 14:09:59;;;;;;;7.38;2.92;;;;;;;;;;7389649;19;20006;-69
2023/10/06 14:12:27;;;;;;;6.70;2.40;;;;;;;;;;7356746;19;20030;-69
2023/10/06 14:17:20;;;;;;;12.07;2.85;;;;;;;;;;7365464;19;20081;-71
2023/10/06 14:19:47;;;;;;;6.53;2.58;;;;;;;;;;7362632;19;20014;-72
2023/10/06 14:22:12;;;;;;;7.82;2.88;;;;;;;;;;7362635;19;20644;-71
2023/10/06 14:24:39;;;;;;;8.43;2.88;;;;;;;;;;7382897;19;20010;-70
2023/10/06 14:27:06;;;;;;;5.57;3.00;;;;;;;;;;7358175;19;20010;-70
2023/10/06 14:29:32;;;;;;;10.77;2.83;;;;;;;;;;7364392;19;20010;-69
2023/10/06 14:32:18;;;;;;;7.97;2.85;;;;;;;;;;7354268;19;20021;-66
2023/10/06 14:34:58;;;;;;;6.93;2.88;;;;;;;;;;7363089;19;20003;-71
2023/10/06 14:37:53;;;;;;;8.25;4.88;;;;;;;;;;7364626;19;20011;-69
2023/10/06 14:45:59;;;;;;;7.25;2.92;;;;;;;;;;7383302;19;20017;-70
2023/10/06 14:48:27;;;;;;;7.10;2.80;;;;;;;;;;7361892;19;20044;-70
2023/10/06 14:51:00;;;;;;;6.28;2.75;;;;;;;;;;7361736;19;20396;-71
2023/10/06 14:53:25;;;;;;;10.82;2.70;;;;;;;;;;7360801;19;20006;-70
2023/10/06 14:55:57;;;;;;;7.30;2.92;;;;;;;;;;7362729;19;20002;-71
2023/10/06 14:58:22;;;;;;;8.82;3.08;;;;;;;;;;7364047;19;20062;-70
2023/10/06 15:00:48;;;;;;;5.75;2.65;;;;;;;;;;7385995;19;20411;-70